createdAt,value
2023-04-16T00:00:59.889Z,97739.72
2023-04-16T00:02:03.120Z,97739.38
2023-04-16T00:03:06.171Z,97740.09
2023-04-16T00:04:09.411Z,97734.50
2023-04-16T00:05:12.222Z,97738.16
2023-04-16T00:06:15.054Z,97738.72
2023-04-16T00:07:17.824Z,97742.00
2023-04-16T00:08:20.616Z,97740.91
2023-04-16T00:09:23.262Z,97738.59
2023-04-16T00:10:26.503Z,97737.56
2023-04-16T00:11:29.296Z,97732.66
2023-04-16T00:12:32.340Z,97740.66
2023-04-16T00:13:35.772Z,97741.94
2023-04-16T00:14:38.729Z,97741.62
2023-04-16T00:15:41.512Z,97738.56
2023-04-16T00:16:44.247Z,97741.12
2023-04-16T00:17:47.251Z,97742.56
2023-04-16T00:18:50.081Z,97741.84
2023-04-16T00:19:53.260Z,97742.25
2023-04-16T00:20:56.238Z,97737.03
2023-04-16T00:21:59.044Z,97737.25
2023-04-16T00:23:02.024Z,97731.38
2023-04-16T00:24:05.087Z,97739.03
2023-04-16T00:25:08.170Z,97739.75
2023-04-16T00:26:11.356Z,97733.41
2023-04-16T00:27:14.092Z,97733.28
2023-04-16T00:28:17.292Z,97736.56
2023-04-16T00:29:20.017Z,97736.75
2023-04-16T00:30:23.245Z,97736.91
2023-04-16T00:31:33.610Z,97740.13
2023-04-16T00:32:36.478Z,97731.97
2023-04-16T00:33:39.264Z,97738.47
2023-04-16T00:34:42.040Z,97738.47
2023-04-16T00:35:48.814Z,97739.34
2023-04-16T00:36:51.587Z,97740.97
2023-04-16T00:37:54.553Z,97737.06
2023-04-16T00:38:57.728Z,97738.44
2023-04-16T00:40:01.401Z,97741.62
2023-04-16T00:41:04.532Z,97741.28
2023-04-16T00:42:07.210Z,97738.37
2023-04-16T00:43:10.006Z,97741.16
2023-04-16T00:44:12.802Z,97745.66
2023-04-16T00:45:16.130Z,97752.25
2023-04-16T00:46:24.142Z,97741.00
2023-04-16T00:47:28.344Z,97742.28
2023-04-16T00:48:33.012Z,97753.63
2023-04-16T00:49:36.574Z,97742.19
2023-04-16T00:50:39.505Z,97747.09
2023-04-16T00:51:42.195Z,97740.03
2023-04-16T00:52:47.886Z,97743.50
2023-04-16T00:53:50.974Z,97746.59
2023-04-16T00:54:54.399Z,97742.28
2023-04-16T00:55:57.553Z,97743.72
2023-04-16T00:57:00.363Z,97732.75
2023-04-16T00:58:03.865Z,97743.44
2023-04-16T00:59:07.235Z,97737.28
2023-04-16T01:00:10.816Z,97733.62
2023-04-16T01:01:14.727Z,97735.09
2023-04-16T01:02:17.942Z,97730.19
2023-04-16T01:03:21.128Z,97733.25
2023-04-16T01:04:24.354Z,97737.53
2023-04-16T01:05:27.372Z,97739.38
2023-04-16T01:06:30.688Z,97728.38
2023-04-16T01:07:33.375Z,97729.09
2023-04-16T01:08:36.300Z,97732.97
2023-04-16T01:09:39.090Z,97742.25
2023-04-16T01:10:42.119Z,97746.28
2023-04-16T01:11:44.882Z,97745.69
2023-04-16T01:12:47.730Z,97736.09
2023-04-16T01:13:50.485Z,97741.72
2023-04-16T01:14:53.403Z,97742.25
2023-04-16T01:15:56.276Z,97745.87
2023-04-16T01:16:59.087Z,97735.13
2023-04-16T01:18:01.868Z,97735.78
2023-04-16T01:19:04.814Z,97740.75
2023-04-16T01:20:08.000Z,97739.63
2023-04-16T01:21:11.270Z,97741.69
2023-04-16T01:22:14.273Z,97738.16
2023-04-16T01:23:19.058Z,97742.56
2023-04-16T01:24:24.251Z,97737.53
2023-04-16T01:25:26.883Z,97739.94
2023-04-16T01:26:29.718Z,97743.22
2023-04-16T01:27:32.750Z,97747.63
2023-04-16T01:28:36.226Z,97738.00
2023-04-16T01:29:38.987Z,97743.94
2023-04-16T01:30:42.393Z,97742.06
2023-04-16T01:31:47.145Z,97744.66
2023-04-16T01:32:50.128Z,97743.28
2023-04-16T01:33:52.797Z,97740.91
2023-04-16T01:34:55.540Z,97744.78
2023-04-16T01:35:58.222Z,97744.22
2023-04-16T01:37:00.974Z,97746.31
2023-04-16T01:38:04.286Z,97744.03
2023-04-16T01:39:07.478Z,97743.03
2023-04-16T01:40:11.242Z,97744.28
2023-04-16T01:41:14.021Z,97743.03
2023-04-16T01:42:16.791Z,97742.31
2023-04-16T01:43:19.455Z,97743.56
2023-04-16T01:44:23.310Z,97747.78
2023-04-16T01:45:26.094Z,97739.97
2023-04-16T01:46:31.275Z,97742.78
2023-04-16T01:47:34.229Z,97739.78
2023-04-16T01:48:37.007Z,97739.22
2023-04-16T01:49:39.994Z,97745.97
2023-04-16T01:50:42.817Z,97748.22
2023-04-16T01:51:45.640Z,97745.66
2023-04-16T01:52:48.332Z,97746.06
2023-04-16T01:53:51.350Z,97747.56
2023-04-16T01:54:54.051Z,97747.56
2023-04-16T01:55:56.719Z,97743.38
2023-04-16T01:56:59.404Z,97750.47
2023-04-16T01:58:02.120Z,97745.75
2023-04-16T01:59:05.029Z,97738.28
2023-04-16T02:00:08.943Z,97746.75
2023-04-16T02:01:11.914Z,97741.44
2023-04-16T02:02:16.471Z,97745.91
2023-04-16T02:03:19.433Z,97751.38
2023-04-16T02:04:22.141Z,97745.47
2023-04-16T02:05:24.826Z,97748.84
2023-04-16T02:06:27.679Z,97750.72
2023-04-16T02:07:32.226Z,97744.53
2023-04-16T02:08:35.093Z,97744.22
2023-04-16T02:09:39.691Z,97748.38
2023-04-16T02:10:42.359Z,97751.25
2023-04-16T02:11:45.326Z,97751.00
2023-04-16T02:12:48.178Z,97741.47
2023-04-16T02:13:51.417Z,97746.06
2023-04-16T02:14:54.166Z,97753.69
2023-04-16T02:15:56.940Z,97751.44
2023-04-16T02:17:00.892Z,97752.87
2023-04-16T02:18:03.885Z,97756.38
2023-04-16T02:19:07.081Z,97749.94
2023-04-16T02:20:11.104Z,97740.09
2023-04-16T02:21:14.175Z,97738.75
2023-04-16T02:22:17.118Z,97744.94
2023-04-16T02:23:19.835Z,97751.13
2023-04-16T02:24:22.531Z,97752.22
2023-04-16T02:25:25.575Z,97754.31
2023-04-16T02:26:29.373Z,97755.13
2023-04-16T02:27:32.220Z,97752.09
2023-04-16T02:28:35.112Z,97759.16
2023-04-16T02:29:38.128Z,97758.19
2023-04-16T02:30:41.417Z,97758.06
2023-04-16T02:31:44.684Z,97757.81
2023-04-16T02:32:47.549Z,97763.28
2023-04-16T02:33:50.328Z,97758.66
2023-04-16T02:34:53.130Z,97757.09
2023-04-16T02:35:55.883Z,97764.00
2023-04-16T02:36:58.755Z,97761.84
2023-04-16T02:38:02.327Z,97761.13
2023-04-16T02:39:05.279Z,97757.50
2023-04-16T02:40:08.791Z,97765.94
2023-04-16T02:41:11.872Z,97763.41
2023-04-16T02:42:14.763Z,97766.38
2023-04-16T02:43:17.492Z,97760.59
2023-04-16T02:44:20.298Z,97763.94
2023-04-16T02:45:23.634Z,97762.19
2023-04-16T02:46:26.639Z,97763.91
2023-04-16T02:47:29.475Z,97760.16
2023-04-16T02:48:32.472Z,97761.00
2023-04-16T02:49:36.077Z,97765.59
2023-04-16T02:50:38.770Z,97765.34
2023-04-16T02:51:41.687Z,97769.03
2023-04-16T02:52:44.712Z,97759.78
2023-04-16T02:53:47.432Z,97765.88
2023-04-16T02:54:50.158Z,97767.28
2023-04-16T02:55:56.522Z,97772.75
2023-04-16T02:56:59.564Z,97773.00
2023-04-16T02:58:02.287Z,97769.47
2023-04-16T02:59:05.367Z,97766.41
2023-04-16T03:00:08.954Z,97769.22
2023-04-16T03:01:11.995Z,97774.78
2023-04-16T03:02:14.802Z,97764.84
2023-04-16T03:03:17.627Z,97767.37
2023-04-16T03:04:20.548Z,97776.72
2023-04-16T03:05:23.188Z,97771.78
2023-04-16T03:06:26.458Z,97774.94
2023-04-16T03:07:29.143Z,97779.19
2023-04-16T03:08:31.871Z,97776.84
2023-04-16T03:09:34.758Z,97780.91
2023-04-16T03:10:37.902Z,97776.41
2023-04-16T03:11:40.802Z,97776.09
2023-04-16T03:12:43.434Z,97782.66
2023-04-16T03:13:46.289Z,97779.38
2023-04-16T03:14:52.021Z,97778.34
2023-04-16T03:15:54.919Z,97779.16
2023-04-16T03:16:58.648Z,97778.34
2023-04-16T03:18:06.948Z,97778.94
2023-04-16T03:19:09.929Z,97780.22
2023-04-16T03:20:14.650Z,97780.44
2023-04-16T03:21:17.563Z,97776.81
2023-04-16T03:22:21.427Z,97775.59
2023-04-16T03:23:24.178Z,97787.28
2023-04-16T03:24:28.298Z,97780.41
2023-04-16T03:25:31.130Z,97781.66
2023-04-16T03:26:34.155Z,97780.41
2023-04-16T03:27:36.905Z,97785.34
2023-04-16T03:28:39.745Z,97782.44
2023-04-16T03:29:42.511Z,97776.66
2023-04-16T03:30:51.808Z,97782.28
2023-04-16T03:31:54.812Z,97784.81
2023-04-16T03:32:57.458Z,97793.34
2023-04-16T03:34:00.291Z,97793.56
2023-04-16T03:35:04.170Z,97793.63
2023-04-16T03:36:07.255Z,97794.34
2023-04-16T03:37:12.348Z,97797.28
2023-04-16T03:38:15.316Z,97810.72
2023-04-16T03:39:18.437Z,97815.13
2023-04-16T03:40:21.794Z,97814.56
2023-04-16T03:41:24.709Z,97812.38
2023-04-16T03:42:27.397Z,97819.13
2023-04-16T03:43:30.250Z,97817.84
2023-04-16T03:44:32.922Z,97824.16
2023-04-16T03:45:35.672Z,97814.41
2023-04-16T03:46:38.444Z,97817.66
2023-04-16T03:47:41.150Z,97829.09
2023-04-16T03:48:44.005Z,97826.38
2023-04-16T03:49:47.041Z,97826.72
2023-04-16T03:50:49.835Z,97826.72
2023-04-16T03:51:53.150Z,97828.84
2023-04-16T03:52:55.938Z,97823.41
2023-04-16T03:53:58.583Z,97830.69
2023-04-16T03:55:03.907Z,97841.75
2023-04-16T03:56:06.863Z,97835.03
2023-04-16T03:57:09.689Z,97840.12
2023-04-16T03:58:12.472Z,97844.31
2023-04-16T03:59:15.505Z,97838.81
2023-04-16T04:00:18.418Z,97845.66
2023-04-16T04:01:21.260Z,97847.88
2023-04-16T04:02:24.154Z,97844.03
2023-04-16T04:03:27.295Z,97847.28
2023-04-16T04:04:30.294Z,97843.31
2023-04-16T04:05:45.478Z,97845.88
2023-04-16T04:06:48.326Z,97840.28
2023-04-16T04:07:51.127Z,97844.59
2023-04-16T04:08:54.325Z,97841.78
2023-04-16T04:09:57.289Z,97839.22
2023-04-16T04:11:00.133Z,97830.69
2023-04-16T04:12:03.929Z,97844.16
2023-04-16T04:13:07.402Z,97839.78
2023-04-16T04:14:10.006Z,97838.84
2023-04-16T04:15:12.886Z,97844.06
2023-04-16T04:16:15.847Z,97840.78
2023-04-16T04:17:18.758Z,97839.72
2023-04-16T04:18:21.546Z,97844.28
2023-04-16T04:19:24.512Z,97843.00
2023-04-16T04:20:27.504Z,97835.19
2023-04-16T04:21:31.998Z,97845.06
2023-04-16T04:22:35.093Z,97833.47
2023-04-16T04:23:37.976Z,97831.25
2023-04-16T04:24:40.739Z,97834.31
2023-04-16T04:25:43.389Z,97829.13
2023-04-16T04:26:46.041Z,97828.75
2023-04-16T04:27:49.469Z,97828.34
2023-04-16T04:28:52.209Z,97832.84
2023-04-16T04:29:54.969Z,97839.19
2023-04-16T04:30:59.109Z,97838.41
2023-04-16T04:32:02.066Z,97841.12
2023-04-16T04:33:04.935Z,97848.12
2023-04-16T04:34:07.673Z,97850.28
2023-04-16T04:35:10.493Z,97849.25
2023-04-16T04:36:13.167Z,97854.72
2023-04-16T04:37:16.166Z,97853.13
2023-04-16T04:38:20.345Z,97860.97
2023-04-16T04:39:23.796Z,97856.81
2023-04-16T04:40:26.642Z,97858.97
2023-04-16T04:41:29.425Z,97861.94
2023-04-16T04:42:32.023Z,97859.94
2023-04-16T04:43:34.704Z,97873.19
2023-04-16T04:44:37.385Z,97867.34
2023-04-16T04:45:40.666Z,97860.97
2023-04-16T04:46:43.602Z,97865.19
2023-04-16T04:47:46.505Z,97869.59
2023-04-16T04:48:49.373Z,97868.88
2023-04-16T04:49:52.115Z,97863.06
2023-04-16T04:50:54.844Z,97855.94
2023-04-16T04:51:57.588Z,97861.06
2023-04-16T04:53:00.351Z,97864.28
2023-04-16T04:54:03.106Z,97851.34
2023-04-16T04:55:06.280Z,97860.91
2023-04-16T04:56:12.724Z,97872.38
2023-04-16T04:57:16.193Z,97869.00
2023-04-16T04:58:18.950Z,97867.25
2023-04-16T04:59:21.876Z,97872.81
2023-04-16T05:00:25.032Z,97869.66
2023-04-16T05:01:27.781Z,97866.84
2023-04-16T05:02:30.669Z,97867.66
2023-04-16T05:03:33.437Z,97873.66
2023-04-16T05:04:36.322Z,97870.53
2023-04-16T05:05:42.024Z,97871.34
2023-04-16T05:06:45.149Z,97870.31
2023-04-16T05:07:48.090Z,97867.91
2023-04-16T05:08:51.016Z,97870.88
2023-04-16T05:09:53.740Z,97869.97
2023-04-16T05:10:56.543Z,97869.09
2023-04-16T05:11:59.401Z,97874.87
2023-04-16T05:13:02.283Z,97879.31
2023-04-16T05:14:05.251Z,97867.09
2023-04-16T05:15:08.663Z,97874.25
2023-04-16T05:16:11.575Z,97870.06
2023-04-16T05:17:14.515Z,97865.91
2023-04-16T05:18:17.612Z,97871.25
2023-04-16T05:19:20.209Z,97872.63
2023-04-16T05:20:24.499Z,97869.00
2023-04-16T05:21:27.314Z,97872.72
2023-04-16T05:22:30.727Z,97872.22
2023-04-16T05:23:33.402Z,97872.81
2023-04-16T05:24:36.205Z,97880.41
2023-04-16T05:25:38.849Z,97878.97
2023-04-16T05:26:41.820Z,97875.34
2023-04-16T05:27:44.912Z,97880.75
2023-04-16T05:28:47.915Z,97872.94
2023-04-16T05:29:50.946Z,97883.88
2023-04-16T05:30:53.828Z,97883.16
2023-04-16T05:31:56.982Z,97882.44
2023-04-16T05:33:00.049Z,97889.75
2023-04-16T05:34:02.846Z,97888.47
2023-04-16T05:35:06.517Z,97888.03
2023-04-16T05:36:09.121Z,97882.59
2023-04-16T05:37:12.403Z,97887.31
2023-04-16T05:38:15.146Z,97885.16
2023-04-16T05:39:18.777Z,97887.50
2023-04-16T05:40:21.772Z,97886.22
2023-04-16T05:41:24.434Z,97894.72
2023-04-16T05:42:27.019Z,97889.50
2023-04-16T05:43:29.700Z,97893.34
2023-04-16T05:44:32.378Z,97897.22
2023-04-16T05:45:39.911Z,97903.94
2023-04-16T05:46:43.422Z,97893.34
2023-04-16T05:47:46.146Z,97899.03
2023-04-16T05:48:49.189Z,97890.53
2023-04-16T05:49:52.299Z,97892.28
2023-04-16T05:50:55.064Z,97892.28
2023-04-16T05:51:57.855Z,97890.34
2023-04-16T05:53:00.649Z,97897.25
2023-04-16T05:54:03.418Z,97886.50
2023-04-16T05:55:07.321Z,97887.03
2023-04-16T05:56:10.436Z,97899.84
2023-04-16T05:57:14.344Z,97889.63
2023-04-16T05:58:17.102Z,97892.03
2023-04-16T05:59:19.921Z,97887.50
2023-04-16T06:00:22.930Z,97890.50
2023-04-16T06:01:25.748Z,97887.75
2023-04-16T06:02:30.788Z,97899.56
2023-04-16T06:03:33.648Z,97896.00
2023-04-16T06:04:37.421Z,97899.75
2023-04-16T06:05:40.248Z,97901.31
2023-04-16T06:06:43.088Z,97893.12
2023-04-16T06:07:45.862Z,97894.41
2023-04-16T06:08:48.737Z,97896.00
2023-04-16T06:09:51.477Z,97903.22
2023-04-16T06:10:54.565Z,97908.03
2023-04-16T06:11:58.229Z,97890.19
2023-04-16T06:13:01.134Z,97902.97
2023-04-16T06:14:03.968Z,97899.81
2023-04-16T06:15:07.361Z,97898.78
2023-04-16T06:16:10.233Z,97900.94
2023-04-16T06:17:13.056Z,97905.34
2023-04-16T06:18:15.936Z,97906.91
2023-04-16T06:19:18.863Z,97902.75
2023-04-16T06:20:22.106Z,97897.84
2023-04-16T06:21:25.022Z,97902.88
2023-04-16T06:22:27.987Z,97897.13
2023-04-16T06:23:30.667Z,97897.84
2023-04-16T06:24:33.607Z,97894.22
2023-04-16T06:25:36.420Z,97897.84
2023-04-16T06:26:39.553Z,97907.09
2023-04-16T06:27:42.424Z,97903.19
2023-04-16T06:28:45.143Z,97902.06
2023-04-16T06:29:47.854Z,97902.19
2023-04-16T06:30:50.803Z,97901.47
2023-04-16T06:31:53.780Z,97909.69
2023-04-16T06:32:56.741Z,97910.00
2023-04-16T06:33:59.534Z,97899.19
2023-04-16T06:35:02.332Z,97900.38
2023-04-16T06:36:05.475Z,97908.44
2023-04-16T06:37:10.557Z,97910.66
2023-04-16T06:38:13.581Z,97910.25
2023-04-16T06:39:16.405Z,97912.13
2023-04-16T06:40:19.435Z,97903.91
2023-04-16T06:41:23.065Z,97907.22
2023-04-16T06:42:26.246Z,97904.78
2023-04-16T06:43:30.056Z,97903.94
2023-04-16T06:44:33.014Z,97909.28
2023-04-16T06:45:35.724Z,97901.62
2023-04-16T06:46:38.678Z,97903.94
2023-04-16T06:47:41.502Z,97907.13
2023-04-16T06:48:44.352Z,97903.53
2023-04-16T06:49:47.415Z,97900.50
2023-04-16T06:50:50.350Z,97897.34
2023-04-16T06:51:53.521Z,97899.34
2023-04-16T06:52:56.744Z,97901.38
2023-04-16T06:53:59.866Z,97904.37
2023-04-16T06:55:02.801Z,97903.09
2023-04-16T06:56:06.100Z,97905.53
2023-04-16T06:57:08.744Z,97899.31
2023-04-16T06:58:11.527Z,97902.91
2023-04-16T06:59:14.314Z,97901.75
2023-04-16T07:00:17.229Z,97894.56
2023-04-16T07:01:20.646Z,97903.63
2023-04-16T07:02:24.507Z,97894.97
2023-04-16T07:03:27.698Z,97905.34
2023-04-16T07:04:30.666Z,97900.28
2023-04-16T07:05:33.484Z,97903.31
2023-04-16T07:06:36.305Z,97907.38
2023-04-16T07:07:39.076Z,97909.94
2023-04-16T07:08:41.731Z,97909.50
2023-04-16T07:09:44.613Z,97904.44
2023-04-16T07:10:47.472Z,97902.00
2023-04-16T07:11:50.218Z,97906.59
2023-04-16T07:12:53.189Z,97910.75
2023-04-16T07:13:55.963Z,97910.31
2023-04-16T07:14:59.015Z,97908.59
2023-04-16T07:16:01.813Z,97908.59
2023-04-16T07:17:04.651Z,97921.00
2023-04-16T07:18:07.505Z,97917.53
2023-04-16T07:19:10.787Z,97915.38
2023-04-16T07:20:13.622Z,97915.38
2023-04-16T07:21:16.719Z,97917.25
2023-04-16T07:22:19.839Z,97915.50
2023-04-16T07:23:22.871Z,97913.78
2023-04-16T07:24:25.652Z,97907.88
2023-04-16T07:25:28.554Z,97914.81
2023-04-16T07:26:31.541Z,97912.34
2023-04-16T07:27:34.358Z,97913.34
2023-04-16T07:28:37.242Z,97917.66
2023-04-16T07:29:41.069Z,97912.87
2023-04-16T07:30:44.452Z,97914.47
2023-04-16T07:31:47.546Z,97919.13
2023-04-16T07:32:51.743Z,97919.38
2023-04-16T07:33:54.680Z,97917.75
2023-04-16T07:34:57.597Z,97923.53
2023-04-16T07:36:00.422Z,97924.81
2023-04-16T07:37:03.121Z,97922.50
2023-04-16T07:38:06.253Z,97926.66
2023-04-16T07:39:09.272Z,97923.50
2023-04-16T07:40:12.576Z,97921.16
2023-04-16T07:41:15.258Z,97926.16
2023-04-16T07:42:17.966Z,97922.31
2023-04-16T07:43:20.690Z,97927.78
2023-04-16T07:44:23.722Z,97922.38
2023-04-16T07:45:26.364Z,97922.53
2023-04-16T07:46:36.195Z,97923.97
2023-04-16T07:47:49.109Z,97920.78
2023-04-16T07:48:52.107Z,97930.31
2023-04-16T07:49:54.984Z,97927.44
2023-04-16T07:50:58.168Z,97920.63
2023-04-16T07:52:01.146Z,97928.69
2023-04-16T07:53:04.331Z,97924.00
2023-04-16T07:54:07.017Z,97928.78
2023-04-16T07:55:10.023Z,97927.31
2023-04-16T07:56:12.818Z,97926.66
2023-04-16T07:57:16.689Z,97930.28
2023-04-16T07:58:19.623Z,97933.41
2023-04-16T07:59:23.899Z,97930.44
2023-04-16T08:00:27.590Z,97927.37
2023-04-16T08:01:30.974Z,97929.22
2023-04-16T08:02:34.201Z,97927.56
2023-04-16T08:03:37.173Z,97924.94
2023-04-16T08:04:41.420Z,97933.19
2023-04-16T08:05:44.605Z,97937.38
2023-04-16T08:06:48.060Z,97935.22
2023-04-16T08:07:50.758Z,97934.25
2023-04-16T08:08:53.727Z,97932.75
2023-04-16T08:09:56.707Z,97936.81
2023-04-16T08:11:00.293Z,97941.59
2023-04-16T08:12:04.141Z,97941.59
2023-04-16T08:13:06.917Z,97936.09
2023-04-16T08:14:09.888Z,97943.34
2023-04-16T08:15:12.657Z,97942.75
2023-04-16T08:16:18.189Z,97937.25
2023-04-16T08:17:21.104Z,97935.22
2023-04-16T08:18:24.032Z,97942.63
2023-04-16T08:19:26.940Z,97934.19
2023-04-16T08:20:29.915Z,97944.94
2023-04-16T08:21:33.556Z,97949.69
2023-04-16T08:22:36.907Z,97938.69
2023-04-16T08:23:39.650Z,97949.56
2023-04-16T08:24:42.461Z,97938.69
2023-04-16T08:25:45.217Z,97942.75
2023-04-16T08:26:48.392Z,97945.38
2023-04-16T08:27:51.692Z,97948.00
2023-04-16T08:28:54.597Z,97946.00
2023-04-16T08:29:57.525Z,97950.03
2023-04-16T08:31:00.467Z,97945.56
2023-04-16T08:32:03.600Z,97948.41
2023-04-16T08:33:06.491Z,97945.25
2023-04-16T08:34:11.875Z,97944.53
2023-04-16T08:35:14.758Z,97944.53
2023-04-16T08:36:20.205Z,97938.13
2023-04-16T08:37:24.005Z,97946.94
2023-04-16T08:38:26.723Z,97950.22
2023-04-16T08:39:29.668Z,97946.66
2023-04-16T08:40:35.100Z,97944.75
2023-04-16T08:41:43.316Z,97956.84
2023-04-16T08:42:57.959Z,97949.69
2023-04-16T08:44:05.303Z,97959.66
2023-04-16T08:45:14.074Z,97957.03
2023-04-16T08:46:18.022Z,97959.09
2023-04-16T08:47:25.659Z,97956.72
2023-04-16T08:48:34.335Z,97960.59
2023-04-16T08:49:43.824Z,97961.56
2023-04-16T08:50:48.533Z,97959.03
2023-04-16T08:51:53.048Z,97957.97
2023-04-16T08:53:03.930Z,97964.19
2023-04-16T08:54:15.054Z,97961.09
2023-04-16T08:55:21.054Z,97969.84
2023-04-16T08:56:24.881Z,97969.47
2023-04-16T08:57:31.735Z,97966.00
2023-04-16T08:58:35.935Z,97974.28
2023-04-16T08:59:39.315Z,97967.06
2023-04-16T09:00:43.678Z,97970.78
2023-04-16T09:01:49.412Z,97965.25
2023-04-16T09:02:53.149Z,97972.09
2023-04-16T09:03:56.603Z,97966.59
2023-04-16T09:05:01.153Z,97965.41
2023-04-16T09:06:05.039Z,97974.75
2023-04-16T09:07:09.574Z,97976.31
2023-04-16T09:08:13.179Z,97966.84
2023-04-16T09:09:17.481Z,97969.00
2023-04-16T09:10:20.740Z,97973.44
2023-04-16T09:11:24.445Z,97971.19
2023-04-16T09:12:27.792Z,97968.19
2023-04-16T09:13:32.091Z,97975.84
2023-04-16T09:14:36.278Z,97976.44
2023-04-16T09:15:40.153Z,97983.75
2023-04-16T09:16:43.171Z,97978.38
2023-04-16T09:17:46.306Z,97980.78
2023-04-16T09:18:49.253Z,97976.00
2023-04-16T09:19:52.253Z,97987.84
2023-04-16T09:20:56.621Z,97983.19
2023-04-16T09:21:59.977Z,97982.31
2023-04-16T09:23:02.875Z,97985.34
2023-04-16T09:24:06.044Z,97988.91
2023-04-16T09:25:10.025Z,97984.38
2023-04-16T09:26:12.771Z,97996.34
2023-04-16T09:27:16.825Z,97990.47
2023-04-16T09:28:43.136Z,97996.97
2023-04-16T09:29:46.448Z,97995.87
2023-04-16T09:30:49.680Z,97991.34
2023-04-16T09:32:05.724Z,97987.72
2023-04-16T09:33:23.073Z,97992.28
2023-04-16T09:34:26.122Z,97999.72
2023-04-16T09:35:48.530Z,98003.69
2023-04-16T09:36:51.491Z,98003.53
2023-04-16T09:37:58.409Z,98002.56
2023-04-16T09:39:01.839Z,97999.59
2023-04-16T09:40:05.428Z,98000.41
2023-04-16T09:41:09.093Z,98005.47
2023-04-16T09:42:12.506Z,98004.25
2023-04-16T09:43:17.654Z,98004.75
2023-04-16T09:44:20.542Z,98006.28
2023-04-16T09:45:23.370Z,98006.88
2023-04-16T09:46:35.697Z,97998.50
2023-04-16T09:47:44.376Z,98008.09
2023-04-16T09:48:47.447Z,98007.84
2023-04-16T09:49:50.568Z,98002.44
2023-04-16T09:50:53.452Z,97998.13
2023-04-16T09:51:57.526Z,98006.16
2023-04-16T09:53:02.942Z,98001.94
2023-04-16T09:54:07.021Z,98001.84
2023-04-16T09:55:09.753Z,97998.84
2023-04-16T09:56:13.796Z,97999.66
2023-04-16T09:57:25.312Z,98000.88
2023-04-16T09:58:29.260Z,97998.22
2023-04-16T09:59:34.352Z,98002.56
2023-04-16T10:00:43.232Z,98001.47
2023-04-16T10:01:57.338Z,98001.72
2023-04-16T10:03:18.452Z,98003.78
2023-04-16T10:04:22.502Z,98007.72
2023-04-16T10:05:26.929Z,98001.84
2023-04-16T10:06:34.838Z,98005.81
2023-04-16T10:07:38.018Z,98001.38
2023-04-16T10:08:51.113Z,97996.31
2023-04-16T10:09:54.523Z,97996.81
2023-04-16T10:10:57.719Z,97991.91
2023-04-16T10:12:00.855Z,98000.75
2023-04-16T10:13:04.078Z,98003.72
2023-04-16T10:14:07.342Z,97991.75
2023-04-16T10:15:10.633Z,97991.50
2023-04-16T10:16:13.461Z,97987.53
2023-04-16T10:17:17.112Z,97995.44
2023-04-16T10:18:21.049Z,97999.16
2023-04-16T10:19:25.548Z,97997.69
2023-04-16T10:20:28.785Z,97990.25
2023-04-16T10:21:34.565Z,97998.97
2023-04-16T10:22:37.591Z,97998.75
2023-04-16T10:23:40.799Z,97994.78
2023-04-16T10:24:44.252Z,98004.94
2023-04-16T10:25:49.016Z,97999.31
2023-04-16T10:26:55.615Z,97989.50
2023-04-16T10:27:59.700Z,97990.44
2023-04-16T10:29:03.089Z,97985.91
2023-04-16T10:30:07.972Z,97994.66
2023-04-16T10:31:12.676Z,97991.81
2023-04-16T10:32:18.638Z,97995.47
2023-04-16T10:33:23.422Z,97995.56
2023-04-16T10:34:27.177Z,97980.56
2023-04-16T10:35:30.519Z,97988.22
2023-04-16T10:36:37.350Z,97985.47
2023-04-16T10:37:41.694Z,97989.63
2023-04-16T10:38:50.258Z,97989.13
2023-04-16T10:39:53.288Z,97986.56
2023-04-16T10:41:04.350Z,97991.09
2023-04-16T10:42:15.008Z,97984.56
2023-04-16T10:43:19.081Z,97988.56
2023-04-16T10:44:25.453Z,97984.47
2023-04-16T10:45:33.083Z,97983.03
2023-04-16T10:46:41.657Z,97978.78
2023-04-16T10:47:44.796Z,97981.53
2023-04-16T10:48:50.658Z,97981.53
2023-04-16T10:49:53.811Z,97981.03
2023-04-16T10:50:58.169Z,97980.03
2023-04-16T10:52:17.222Z,97978.59
2023-04-16T10:53:23.754Z,97979.72
2023-04-16T10:54:28.731Z,97977.97
2023-04-16T10:55:31.613Z,97967.03
2023-04-16T10:56:36.173Z,97969.38
2023-04-16T10:57:39.225Z,97971.44
2023-04-16T10:58:42.395Z,97962.47
2023-04-16T10:59:46.622Z,97967.59
2023-04-16T11:00:51.271Z,97966.06
2023-04-16T11:01:59.955Z,97962.09
2023-04-16T11:03:04.944Z,97965.03
2023-04-16T11:04:19.948Z,97971.88
2023-04-16T11:05:24.261Z,97966.72
2023-04-16T11:06:28.650Z,97972.06
2023-04-16T11:07:36.101Z,97971.03
2023-04-16T11:08:53.378Z,97968.06
2023-04-16T11:10:04.269Z,97968.56
2023-04-16T11:11:08.012Z,97963.47
2023-04-16T11:12:13.526Z,97964.16
2023-04-16T11:13:17.474Z,97963.56
2023-04-16T11:14:20.316Z,97963.75
2023-04-16T11:15:23.624Z,97956.13
2023-04-16T11:16:26.666Z,97963.19
2023-04-16T11:17:42.111Z,97968.50
2023-04-16T11:18:51.461Z,97961.31
2023-04-16T11:19:55.730Z,97966.47
2023-04-16T11:20:59.094Z,97964.50
2023-04-16T11:22:02.675Z,97968.25
2023-04-16T11:23:11.664Z,97961.22
2023-04-16T11:24:14.532Z,97958.06
2023-04-16T11:25:24.632Z,97956.34
2023-04-16T11:26:32.972Z,97959.31
2023-04-16T11:27:36.030Z,97955.09
2023-04-16T11:28:39.665Z,97949.56
2023-04-16T11:29:42.693Z,97952.44
2023-04-16T11:30:46.418Z,97948.13
2023-04-16T11:31:53.934Z,97951.66
2023-04-16T11:32:57.203Z,97956.19
2023-04-16T11:34:01.166Z,97953.22
2023-04-16T11:35:18.193Z,97960.53
2023-04-16T11:36:21.123Z,97952.22
2023-04-16T11:37:37.993Z,97950.59
2023-04-16T11:38:43.610Z,97968.94
2023-04-16T11:39:53.111Z,97968.28
2023-04-16T11:40:55.837Z,97964.53
2023-04-16T11:41:58.556Z,97957.38
2023-04-16T11:43:15.647Z,97961.56
2023-04-16T11:44:25.617Z,97961.75
2023-04-16T11:45:28.398Z,97963.00
2023-04-16T11:46:40.795Z,97955.81
2023-04-16T11:47:52.332Z,97961.91
2023-04-16T11:48:56.354Z,97952.50
2023-04-16T11:50:16.645Z,97956.56
2023-04-16T11:51:19.922Z,97963.53
2023-04-16T11:52:30.458Z,97967.72
2023-04-16T11:53:33.145Z,97967.13
2023-04-16T11:54:36.836Z,97953.00
2023-04-16T11:55:46.082Z,97960.88
2023-04-16T11:56:50.121Z,97958.22
2023-04-16T11:57:53.034Z,97956.66
2023-04-16T11:59:19.032Z,97956.66
2023-04-16T12:00:24.720Z,97962.81
2023-04-16T12:01:27.913Z,97962.31
2023-04-16T12:02:38.784Z,97950.63
2023-04-16T12:03:46.526Z,97956.56
2023-04-16T12:04:49.592Z,97958.22
2023-04-16T12:05:52.561Z,97954.72
2023-04-16T12:07:08.480Z,97956.56
2023-04-16T12:08:12.708Z,97947.88
2023-04-16T12:09:27.384Z,97958.28
2023-04-16T12:10:31.633Z,97955.59
2023-04-16T12:11:41.239Z,97952.75
2023-04-16T12:12:44.085Z,97952.19
2023-04-16T12:14:11.837Z,97949.34
2023-04-16T12:15:14.723Z,97947.19
2023-04-16T12:16:21.232Z,97952.38
2023-04-16T12:17:24.355Z,97948.91
2023-04-16T12:18:27.348Z,97949.16
2023-04-16T12:19:30.025Z,97940.78
2023-04-16T12:20:43.506Z,97945.94
2023-04-16T12:21:50.874Z,97950.25
2023-04-16T12:22:55.632Z,97938.09
2023-04-16T12:23:58.528Z,97947.38
2023-04-16T12:25:12.340Z,97944.97
2023-04-16T12:26:15.336Z,97942.91
2023-04-16T12:27:18.303Z,97942.37
2023-04-16T12:28:35.712Z,97942.91
2023-04-16T12:29:38.953Z,97935.84
2023-04-16T12:30:50.777Z,97941.66
2023-04-16T12:31:54.120Z,97938.97
2023-04-16T12:33:26.397Z,97937.59
2023-04-16T12:34:49.186Z,97941.13